Philip Billard Municipal Airport
KTOP : now visible

Airfield :











YOU CAN JOIN US ON...

 
LOGIN :

Register | Disclaimer

   EN    FR    IT 

 









Legend :    VFR   Marginal VFR   IFR   Intensive IFR   Very Intensive IFR
Visi :
Ceiling :
>= 8 km
>= 3000ft
5 to 8 km
1000 to 3000 ft
1500m to 5 km
500 to 1000 ft
800 to 1500m
200 to 500 ft
< 800m
< 200 ft
Symbols :   Thunderstorms  Fog  Heavy snow  Heavy precipitations  Wind > 20 kt






- Airport Elevation : 881 ft


KTOP - Philip Billard Municipal

CURRENT METAR :
  • 271153Z AUTO VRB03KT 10SM CLR 17/09 A2985 RMK AO2 SLP100 T01720094 10239 20172 53002

EXPIRED METARs :
  • 271053Z AUTO 21006KT 10SM CLR 21/09 A2985 RMK AO2 SLP098 T02060094
  • 270953Z AUTO 21008KT 10SM CLR 21/09 A2984 RMK AO2 SLP095 T02110094

TAF KTOP
Valid from the 27 at 12:00 until the 28 at 12:00 UTC


271120Z 2712/2812 21008KT P6SM SKC WS015/24040KT
FM271400 22011KT P6SM SKC
KZKC FIR / North America



MET'MAP, your aeronautical weather chart ! - Copyright ORBIFLY December 2007 - Disclaimer

ORBIFLY MET'MAP TEAM :

Programming & Development : Alexandra Zaïnal
Concept & original design : Baudouin d'Aumeries
Assistance for programming : Marc-Olivier Méhu
Technical & hardware support : Manuel Goepfert

Contact : metmap@orbifly.com




SOURCES & CREDITS :

   NOAA       Earth
Advisory